Time;durP1;ratioP1;P1;durP2;ratioP2;P2;SDS_P1;SDS_P2;PMS_P1;PMS_P2;Temp;Humidity;BMP_temperature;BMP_pressure;BME280_temperature;BME280_humidity;BME280_pressure;Samples;Min_cycle;Max_cycle;Signal;HPM_P1;HPM_P2
2024/03/24 00:01:57;;;;;;;;;;;20.50;52.00;;;;;;1577596;73;763;-69
2024/03/24 00:03:59;;;;;;;;;;;20.50;52.00;;;;;;1578794;73;619;-69
2024/03/24 00:06:01;;;;;;;;;;;20.50;51.90;;;;;;1583222;73;1148;-70
2024/03/24 00:08:03;;;;;;;;;;;20.40;51.90;;;;;;1567650;73;775;-72
2024/03/24 00:10:06;;;;;;;;;;;20.40;51.90;;;;;;1575223;73;735;-72
2024/03/24 00:12:08;;;;;;;;;;;20.50;52.00;;;;;;1580526;73;752;-70
2024/03/24 00:14:10;;;;;;;;;;;20.50;52.10;;;;;;1587249;73;692;-69
2024/03/24 00:16:12;;;;;;;;;;;20.40;52.00;;;;;;1579178;73;717;-71
2024/03/24 00:18:14;;;;;;;;;;;20.50;52.10;;;;;;1587969;73;803;-69
2024/03/24 00:20:15;;;;;;;;;;;20.40;52.00;;;;;;1580729;73;1931;-70
2024/03/24 00:22:17;;;;;;;;;;;20.50;52.10;;;;;;1580171;73;822;-71
2024/03/24 00:24:19;;;;;;;;;;;20.50;52.10;;;;;;1589050;73;1144;-69
2024/03/24 00:26:21;;;;;;;;;;;20.40;52.00;;;;;;1580279;73;783;-71
2024/03/24 00:28:23;;;;;;;;;;;20.50;52.10;;;;;;1568940;73;747;-69
2024/03/24 00:30:25;;;;;;;;;;;20.40;52.00;;;;;;1591593;73;771;-69
2024/03/24 00:32:27;;;;;;;;;;;20.50;52.10;;;;;;1576618;73;683;-72
2024/03/24 00:34:29;;;;;;;;;;;20.40;52.10;;;;;;1580968;73;1165;-70
2024/03/24 00:36:31;;;;;;;;;;;20.40;52.10;;;;;;1575517;73;702;-72
2024/03/24 00:38:34;;;;;;;;;;;20.40;52.10;;;;;;1576364;73;1934;-69
2024/03/24 00:40:36;;;;;;;;;;;20.50;52.10;;;;;;1581785;73;788;-70
2024/03/24 00:42:38;;;;;;;;;;;20.40;52.10;;;;;;1586676;73;821;-70
2024/03/24 00:44:41;;;;;;;;;;;20.50;52.20;;;;;;1582678;73;1167;-70
2024/03/24 00:46:43;;;;;;;;;;;20.50;52.20;;;;;;1584017;73;744;-70
2024/03/24 00:48:45;;;;;;;;;;;20.50;52.20;;;;;;1576959;73;729;-71
2024/03/24 00:50:46;;;;;;;;;;;20.40;52.10;;;;;;1574653;73;731;-71
2024/03/24 00:52:48;;;;;;;;;;;20.50;52.30;;;;;;1580229;73;608;-70
2024/03/24 00:54:50;;;;;;;;;;;20.50;52.30;;;;;;1590251;72;1122;-71
2024/03/24 00:56:52;;;;;;;;;;;20.40;52.20;;;;;;1585877;73;721;-69
2024/03/24 00:58:55;;;;;;;;;;;20.50;52.30;;;;;;1593333;73;1941;-70
2024/03/24 01:00:56;;;;;;;;;;;20.40;52.20;;;;;;1571795;73;671;-68
2024/03/24 01:02:58;;;;;;;;;;;20.50;52.30;;;;;;1580863;73;686;-69
2024/03/24 01:05:01;;;;;;;;;;;20.50;52.30;;;;;;1587274;73;1174;-67
2024/03/24 01:07:03;;;;;;;;;;;20.50;52.30;;;;;;1582270;73;760;-70
2024/03/24 01:09:05;;;;;;;;;;;20.50;52.40;;;;;;1583994;73;739;-69
2024/03/24 01:11:07;;;;;;;;;;;20.40;52.30;;;;;;1580517;73;815;-69
2024/03/24 01:13:08;;;;;;;;;;;20.50;52.40;;;;;;1590538;73;721;-70
2024/03/24 01:15:10;;;;;;;;;;;20.50;52.50;;;;;;1572313;73;1085;-69
2024/03/24 01:17:12;;;;;;;;;;;20.50;52.40;;;;;;1565926;73;686;-70
2024/03/24 01:19:14;;;;;;;;;;;20.50;52.50;;;;;;1573068;73;1950;-71
2024/03/24 01:21:16;;;;;;;;;;;20.40;52.30;;;;;;1580341;73;763;-71
2024/03/24 01:23:18;;;;;;;;;;;20.50;52.50;;;;;;1576743;73;872;-69
2024/03/24 01:25:20;;;;;;;;;;;20.40;52.30;;;;;;1583599;73;1150;-70
2024/03/24 01:27:22;;;;;;;;;;;20.40;52.30;;;;;;1576579;73;944;-70
2024/03/24 01:29:24;;;;;;;;;;;20.50;52.40;;;;;;1586561;73;738;-69
2024/03/24 01:31:26;;;;;;;;;;;20.40;52.30;;;;;;1578391;73;802;-69
2024/03/24 01:33:28;;;;;;;;;;;20.50;52.50;;;;;;1592625;73;687;-70
2024/03/24 01:35:29;;;;;;;;;;;20.50;52.50;;;;;;1581847;73;1143;-69
2024/03/24 01:37:31;;;;;;;;;;;20.50;52.50;;;;;;1587212;73;757;-71
2024/03/24 01:39:34;;;;;;;;;;;20.50;52.50;;;;;;1581762;73;1938;-70
2024/03/24 01:41:36;;;;;;;;;;;20.50;52.50;;;;;;1581404;73;833;-69
2024/03/24 01:43:38;;;;;;;;;;;20.50;52.50;;;;;;1575601;73;805;-69
2024/03/24 01:45:40;;;;;;;;;;;20.40;52.50;;;;;;1572334;73;1185;-70
2024/03/24 01:47:42;;;;;;;;;;;20.50;52.50;;;;;;1590061;73;679;-67
2024/03/24 01:49:44;;;;;;;;;;;20.40;52.50;;;;;;1581581;73;779;-69
2024/03/24 01:51:45;;;;;;;;;;;20.50;52.60;;;;;;1582258;73;729;-69
2024/03/24 01:53:48;;;;;;;;;;;20.50;52.60;;;;;;1586053;73;818;-68
2024/03/24 01:55:50;;;;;;;;;;;20.50;52.60;;;;;;1574051;73;1141;-67
2024/03/24 01:57:51;;;;;;;;;;;20.50;52.60;;;;;;1580436;73;738;-68
2024/03/24 01:59:53;;;;;;;;;;;20.50;52.60;;;;;;1585203;73;1946;-68
2024/03/24 02:01:55;;;;;;;;;;;20.50;52.60;;;;;;1575303;73;771;-70
2024/03/24 02:03:57;;;;;;;;;;;20.50;52.60;;;;;;1569369;73;732;-69
2024/03/24 02:05:59;;;;;;;;;;;20.50;52.60;;;;;;1580371;73;1107;-69
2024/03/24 02:08:01;;;;;;;;;;;20.40;52.60;;;;;;1574374;73;723;-69
2024/03/24 02:10:03;;;;;;;;;;;20.50;52.70;;;;;;1576757;73;816;-70
2024/03/24 02:12:06;;;;;;;;;;;20.50;52.70;;;;;;1582284;73;793;-71
2024/03/24 02:14:08;;;;;;;;;;;20.40;52.60;;;;;;1576908;73;711;-71
2024/03/24 02:16:10;;;;;;;;;;;20.50;52.70;;;;;;1577460;73;1112;-71
2024/03/24 02:18:12;;;;;;;;;;;20.50;52.80;;;;;;1576730;73;734;-69
2024/03/24 02:20:14;;;;;;;;;;;20.40;52.70;;;;;;1568711;73;1940;-69
2024/03/24 02:22:16;;;;;;;;;;;20.50;52.80;;;;;;1584057;73;759;-70
2024/03/24 02:24:18;;;;;;;;;;;20.50;52.80;;;;;;1581208;73;1158;-70
2024/03/24 02:26:20;;;;;;;;;;;20.50;52.80;;;;;;1574380;73;741;-73
2024/03/24 02:28:22;;;;;;;;;;;20.50;52.80;;;;;;1570010;73;815;-69
2024/03/24 02:30:24;;;;;;;;;;;20.50;52.80;;;;;;1583634;73;625;-69
2024/03/24 02:32:28;;;;;;;;;;;20.40;52.80;;;;;;1578836;73;669;-69
2024/03/24 02:34:30;;;;;;;;;;;20.60;52.90;;;;;;1579931;73;1144;-70
2024/03/24 02:36:32;;;;;;;;;;;20.50;52.80;;;;;;1576122;73;645;-69
2024/03/24 02:38:34;;;;;;;;;;;20.50;52.90;;;;;;1585521;73;727;-70
2024/03/24 02:40:36;;;;;;;;;;;20.40;52.80;;;;;;1586955;73;1951;-69
2024/03/24 02:42:38;;;;;;;;;;;20.50;52.90;;;;;;1587449;73;754;-69
2024/03/24 02:44:45;;;;;;;;;;;20.50;52.90;;;;;;1577139;73;1161;-69
2024/03/24 02:46:44;;;;;;;;;;;20.50;53.00;;;;;;1591773;73;1206;-68
2024/03/24 02:48:45;;;;;;;;;;;20.50;52.90;;;;;;1581960;73;736;-68
2024/03/24 02:50:47;;;;;;;;;;;20.50;53.00;;;;;;1573604;73;837;-69
2024/03/24 02:52:49;;;;;;;;;;;20.40;52.90;;;;;;1585057;73;726;-68
2024/03/24 02:54:51;;;;;;;;;;;20.50;52.90;;;;;;1585693;73;1209;-69
2024/03/24 02:56:53;;;;;;;;;;;20.50;53.00;;;;;;1579620;73;808;-69
2024/03/24 02:58:55;;;;;;;;;;;20.60;53.00;;;;;;1560882;74;758;-69
2024/03/24 03:00:57;;;;;;;;;;;20.50;53.00;;;;;;1580044;73;1942;-70
2024/03/24 03:02:59;;;;;;;;;;;20.40;52.90;;;;;;1584619;73;728;-69
2024/03/24 03:05:00;;;;;;;;;;;20.50;53.00;;;;;;1582036;73;1157;-71
2024/03/24 03:07:02;;;;;;;;;;;20.50;53.00;;;;;;1570630;73;706;-69
2024/03/24 03:09:07;;;;;;;;;;;20.60;53.10;;;;;;1578052;73;694;-71
2024/03/24 03:11:08;;;;;;;;;;;20.50;53.10;;;;;;1565055;73;1652;-71
2024/03/24 03:13:10;;;;;;;;;;;20.60;53.10;;;;;;1578655;73;757;-74
2024/03/24 03:15:15;;;;;;;;;;;20.50;53.10;;;;;;1584618;73;1104;-69
2024/03/24 03:17:15;;;;;;;;;;;20.50;53.20;;;;;;1586646;73;1697;-71
2024/03/24 03:19:17;;;;;;;;;;;20.50;53.10;;;;;;1578782;73;606;-70
2024/03/24 03:21:19;;;;;;;;;;;20.50;53.10;;;;;;1588276;73;1927;-72
2024/03/24 03:23:21;;;;;;;;;;;20.50;53.10;;;;;;1580593;73;675;-73
2024/03/24 03:25:23;;;;;;;;;;;20.50;53.30;;;;;;1595371;73;1160;-70
2024/03/24 03:27:25;;;;;;;;;;;20.50;53.10;;;;;;1593810;73;702;-70
2024/03/24 03:29:27;;;;;;;;;;;20.50;53.10;;;;;;1573505;73;758;-71
2024/03/24 03:31:28;;;;;;;;;;;20.60;53.10;;;;;;1568662;73;733;-73
2024/03/24 03:33:30;;;;;;;;;;;20.50;53.10;;;;;;1579657;73;732;-71
2024/03/24 03:35:32;;;;;;;;;;;20.50;53.20;;;;;;1584503;73;1143;-70
2024/03/24 03:37:34;;;;;;;;;;;20.50;53.20;;;;;;1588006;73;743;-72
2024/03/24 03:39:36;;;;;;;;;;;20.50;53.20;;;;;;1574823;73;834;-70
2024/03/24 03:41:38;;;;;;;;;;;20.60;53.20;;;;;;1582243;73;1935;-70
2024/03/24 03:43:40;;;;;;;;;;;20.50;53.20;;;;;;1582091;73;814;-70
2024/03/24 03:45:42;;;;;;;;;;;20.50;53.10;;;;;;1575279;73;1139;-69
2024/03/24 03:47:43;;;;;;;;;;;20.50;53.20;;;;;;1583298;73;702;-70
2024/03/24 03:49:52;;;;;;;;;;;20.60;53.10;;;;;;1582812;73;862;-70
2024/03/24 03:51:56;;;;;;;;;;;20.50;53.20;;;;;;1584344;73;732;-70
2024/03/24 03:53:58;;;;;;;;;;;20.50;53.10;;;;;;1578891;73;1980;-71
2024/03/24 03:56:00;;;;;;;;;;;20.50;53.10;;;;;;1585732;73;1136;-69
2024/03/24 03:58:02;;;;;;;;;;;20.50;53.10;;;;;;1577806;73;687;-70
2024/03/24 04:00:10;;;;;;;;;;;20.50;53.10;;;;;;1585454;73;1938;-71
2024/03/24 04:02:08;;;;;;;;;;;20.50;53.10;;;;;;1566501;73;1686;-71
2024/03/24 04:04:10;;;;;;;;;;;20.50;53.10;;;;;;1578039;73;780;-70
2024/03/24 04:06:12;;;;;;;;;;;20.50;53.10;;;;;;1582063;73;1136;-70
2024/03/24 04:08:13;;;;;;;;;;;20.50;53.10;;;;;;1586553;73;735;-71
2024/03/24 04:10:15;;;;;;;;;;;20.50;53.10;;;;;;1592424;73;735;-69
2024/03/24 04:12:17;;;;;;;;;;;20.50;53.00;;;;;;1584284;73;683;-70
2024/03/24 04:14:19;;;;;;;;;;;20.50;53.00;;;;;;1583691;73;1147;-70
2024/03/24 04:16:21;;;;;;;;;;;20.60;53.00;;;;;;1584158;73;659;-69
2024/03/24 04:18:23;;;;;;;;;;;20.50;53.00;;;;;;1585089;73;747;-71
2024/03/24 04:20:25;;;;;;;;;;;20.50;52.90;;;;;;1595837;73;1934;-70
2024/03/24 04:22:27;;;;;;;;;;;20.40;52.90;;;;;;1568314;73;732;-69
2024/03/24 04:24:29;;;;;;;;;;;20.50;52.90;;;;;;1581389;73;1147;-71
2024/03/24 04:26:31;;;;;;;;;;;20.40;52.80;;;;;;1592448;73;707;-68
2024/03/24 04:28:32;;;;;;;;;;;20.40;52.90;;;;;;1581706;73;623;-69
2024/03/24 04:30:35;;;;;;;;;;;20.50;52.80;;;;;;1590142;73;781;-69
2024/03/24 04:32:37;;;;;;;;;;;20.50;52.80;;;;;;1581672;73;764;-70
2024/03/24 04:34:38;;;;;;;;;;;20.50;52.90;;;;;;1592133;73;1132;-72
2024/03/24 04:36:40;;;;;;;;;;;20.50;52.90;;;;;;1583616;73;742;-69
2024/03/24 04:38:42;;;;;;;;;;;20.40;52.80;;;;;;1584910;73;761;-69
2024/03/24 04:40:44;;;;;;;;;;;20.50;52.80;;;;;;1582996;73;1927;-68
2024/03/24 04:42:46;;;;;;;;;;;20.50;52.80;;;;;;1567687;73;739;-69
2024/03/24 04:44:48;;;;;;;;;;;20.50;52.80;;;;;;1584465;73;1141;-70
2024/03/24 04:46:50;;;;;;;;;;;20.50;52.90;;;;;;1566355;73;737;-70
2024/03/24 04:48:52;;;;;;;;;;;20.50;52.80;;;;;;1589542;73;815;-70
2024/03/24 04:50:54;;;;;;;;;;;20.50;52.80;;;;;;1584228;73;640;-70
2024/03/24 04:52:58;;;;;;;;;;;20.50;52.80;;;;;;1587350;73;631;-69
2024/03/24 04:55:00;;;;;;;;;;;20.50;52.90;;;;;;1585226;73;1179;-72
2024/03/24 04:57:02;;;;;;;;;;;20.40;52.70;;;;;;1579780;73;710;-69
2024/03/24 04:59:03;;;;;;;;;;;20.50;52.80;;;;;;1576772;73;835;-69
2024/03/24 05:01:05;;;;;;;;;;;20.40;52.70;;;;;;1581311;73;1968;-69
2024/03/24 05:03:08;;;;;;;;;;;20.50;52.80;;;;;;1592291;73;713;-69
2024/03/24 05:05:11;;;;;;;;;;;20.50;52.80;;;;;;1583477;73;1171;-70
2024/03/24 05:07:13;;;;;;;;;;;20.50;52.80;;;;;;1581319;73;794;-70
2024/03/24 05:09:16;;;;;;;;;;;20.40;52.70;;;;;;1581072;73;777;-71
2024/03/24 05:11:17;;;;;;;;;;;20.50;52.80;;;;;;1580864;73;803;-69
2024/03/24 05:13:19;;;;;;;;;;;20.50;52.80;;;;;;1588512;73;792;-72
2024/03/24 05:15:21;;;;;;;;;;;20.50;52.80;;;;;;1591655;73;1150;-71
2024/03/24 05:17:23;;;;;;;;;;;20.50;52.80;;;;;;1583001;73;805;-71
2024/03/24 05:19:25;;;;;;;;;;;20.40;52.80;;;;;;1589304;73;676;-70
2024/03/24 05:21:27;;;;;;;;;;;20.40;52.70;;;;;;1585803;73;1924;-71
2024/03/24 05:23:29;;;;;;;;;;;20.50;52.80;;;;;;1571812;73;602;-69
2024/03/24 05:25:31;;;;;;;;;;;20.50;52.80;;;;;;1569667;73;1119;-69
2024/03/24 05:27:33;;;;;;;;;;;20.50;52.80;;;;;;1592139;73;746;-71
2024/03/24 05:29:35;;;;;;;;;;;20.40;52.70;;;;;;1578739;73;697;-71
2024/03/24 05:31:37;;;;;;;;;;;20.50;52.80;;;;;;1583895;73;703;-71
2024/03/24 05:33:39;;;;;;;;;;;20.50;52.80;;;;;;1578467;73;594;-71
2024/03/24 05:35:40;;;;;;;;;;;20.50;52.80;;;;;;1583936;72;1098;-70
2024/03/24 05:37:44;;;;;;;;;;;20.40;52.70;;;;;;1588176;73;605;-67
2024/03/24 05:39:48;;;;;;;;;;;20.50;52.80;;;;;;1584406;73;744;-68
2024/03/24 05:41:50;;;;;;;;;;;20.40;52.80;;;;;;1578584;73;1908;-69
2024/03/24 05:43:52;;;;;;;;;;;20.50;52.80;;;;;;1588528;73;742;-69
2024/03/24 05:45:54;;;;;;;;;;;20.50;52.80;;;;;;1564070;73;1131;-70
2024/03/24 05:47:56;;;;;;;;;;;20.50;52.80;;;;;;1582411;73;812;-69
2024/03/24 05:49:58;;;;;;;;;;;20.50;52.80;;;;;;1579029;73;741;-70
2024/03/24 05:52:00;;;;;;;;;;;20.40;52.70;;;;;;1582481;73;648;-69
2024/03/24 05:54:02;;;;;;;;;;;20.50;52.80;;;;;;1582269;73;721;-68
2024/03/24 05:56:04;;;;;;;;;;;20.50;52.80;;;;;;1580019;73;1162;-70
2024/03/24 05:58:06;;;;;;;;;;;20.50;52.80;;;;;;1592206;73;651;-72
2024/03/24 06:00:09;;;;;;;;;;;20.50;52.80;;;;;;1547606;75;1106;-67
2024/03/24 06:02:11;;;;;;;;;;;20.50;52.80;;;;;;1533027;75;1907;-71
2024/03/24 06:04:13;;;;;;;;;;;20.50;52.90;;;;;;1512173;77;801;-71
2024/03/24 06:06:15;;;;;;;;;;;20.50;52.90;;;;;;1518821;77;772;-72
2024/03/24 06:08:17;;;;;;;;;;;20.50;53.00;;;;;;1512536;77;753;-69
2024/03/24 06:10:19;;;;;;;;;;;20.40;52.80;;;;;;1527270;76;854;-70
2024/03/24 06:12:27;;;;;;;;;;;20.50;53.00;;;;;;1546804;75;695;-68
2024/03/24 06:14:24;;;;;;;;;;;20.40;52.90;;;;;;1534990;75;1634;-68
2024/03/24 06:16:26;;;;;;;;;;;20.60;53.10;;;;;;1572821;73;770;-71
2024/03/24 06:18:28;;;;;;;;;;;20.40;53.00;;;;;;1579745;73;745;-69
2024/03/24 06:20:30;;;;;;;;;;;20.50;53.10;;;;;;1577762;73;694;-69
2024/03/24 06:22:32;;;;;;;;;;;20.50;53.10;;;;;;1579460;73;1929;-70
2024/03/24 06:24:35;;;;;;;;;;;20.40;53.00;;;;;;1575620;73;1139;-68
2024/03/24 06:26:36;;;;;;;;;;;20.50;53.10;;;;;;1584410;73;722;-69
2024/03/24 06:28:38;;;;;;;;;;;20.40;53.00;;;;;;1580375;73;801;-70
2024/03/24 06:30:41;;;;;;;;;;;20.40;53.10;;;;;;1577647;73;771;-67
2024/03/24 06:32:42;;;;;;;;;;;20.50;53.20;;;;;;1581578;73;723;-69
2024/03/24 06:34:44;;;;;;;;;;;20.40;53.10;;;;;;1574675;73;1178;-68
2024/03/24 06:36:46;;;;;;;;;;;20.40;53.10;;;;;;1591021;73;752;-68
2024/03/24 06:38:48;;;;;;;;;;;20.50;53.20;;;;;;1584306;73;864;-67
2024/03/24 06:40:50;;;;;;;;;;;20.50;53.10;;;;;;1586888;73;1917;-68
2024/03/24 06:43:02;;;;;;;;;;;20.50;53.20;;;;;;1575959;73;669;-70
2024/03/24 06:45:08;;;;;;;;;;;20.50;53.20;;;;;;1577565;73;1140;-68
2024/03/24 06:47:08;;;;;;;;;;;20.50;53.20;;;;;;1580701;73;1697;-68
2024/03/24 06:49:10;;;;;;;;;;;20.50;53.20;;;;;;1582606;73;748;-70
2024/03/24 06:51:12;;;;;;;;;;;20.50;53.30;;;;;;1581825;73;739;-71
2024/03/24 06:53:14;;;;;;;;;;;20.40;53.20;;;;;;1586473;73;776;-69
2024/03/24 06:55:16;;;;;;;;;;;20.50;53.30;;;;;;1573873;73;1200;-70
2024/03/24 06:57:18;;;;;;;;;;;20.40;53.20;;;;;;1564578;73;816;-69
2024/03/24 06:59:20;;;;;;;;;;;20.50;53.30;;;;;;1579725;73;904;-68
2024/03/24 07:01:22;;;;;;;;;;;20.40;53.20;;;;;;1586389;73;1922;-69
2024/03/24 07:03:24;;;;;;;;;;;20.50;53.40;;;;;;1542197;76;797;-68
2024/03/24 07:05:26;;;;;;;;;;;20.40;53.20;;;;;;1513453;77;1184;-68
2024/03/24 07:07:27;;;;;;;;;;;20.40;53.20;;;;;;1538908;75;741;-70
2024/03/24 07:09:29;;;;;;;;;;;20.50;53.30;;;;;;1543933;75;712;-70
2024/03/24 07:11:31;;;;;;;;;;;20.50;53.30;;;;;;1544751;75;796;-68
2024/03/24 07:13:33;;;;;;;;;;;20.50;53.30;;;;;;1516805;77;780;-70
2024/03/24 07:15:35;;;;;;;;;;;20.50;53.30;;;;;;1514610;77;1156;-67
2024/03/24 07:17:37;;;;;;;;;;;20.50;53.40;;;;;;1529295;76;709;-69
2024/03/24 07:19:39;;;;;;;;;;;20.40;53.20;;;;;;1513245;76;688;-70
2024/03/24 07:21:41;;;;;;;;;;;20.50;53.30;;;;;;1519308;76;1930;-68
2024/03/24 07:23:42;;;;;;;;;;;20.40;53.30;;;;;;1519991;76;736;-68
2024/03/24 07:25:46;;;;;;;;;;;20.40;53.30;;;;;;1533181;76;1096;-71
2024/03/24 07:27:48;;;;;;;;;;;20.40;53.30;;;;;;1524634;76;901;-68
2024/03/24 07:29:50;;;;;;;;;;;20.50;53.40;;;;;;1520671;76;757;-69
2024/03/24 07:31:52;;;;;;;;;;;20.40;53.40;;;;;;1513862;76;775;-68
2024/03/24 07:33:55;;;;;;;;;;;20.40;53.40;;;;;;1522103;76;711;-69
2024/03/24 07:35:57;;;;;;;;;;;20.40;53.40;;;;;;1511755;76;1069;-69
2024/03/24 07:37:59;;;;;;;;;;;20.50;53.50;;;;;;1531981;76;793;-69
2024/03/24 07:40:01;;;;;;;;;;;20.50;53.50;;;;;;1525526;76;795;-70
2024/03/24 07:42:02;;;;;;;;;;;20.40;53.40;;;;;;1524798;76;1938;-69
2024/03/24 07:44:04;;;;;;;;;;;20.40;53.50;;;;;;1519311;76;849;-69
2024/03/24 07:46:06;;;;;;;;;;;20.40;53.50;;;;;;1514676;76;1118;-68
2024/03/24 07:48:10;;;;;;;;;;;20.50;53.60;;;;;;1529725;76;758;-72
2024/03/24 07:50:12;;;;;;;;;;;20.40;53.60;;;;;;1509678;76;1512;-70
2024/03/24 07:52:14;;;;;;;;;;;20.50;53.60;;;;;;1522402;76;762;-68
2024/03/24 07:54:16;;;;;;;;;;;20.50;53.70;;;;;;1519430;76;1198;-68
2024/03/24 07:56:18;;;;;;;;;;;20.40;53.60;;;;;;1522136;76;784;-69
2024/03/24 07:58:20;;;;;;;;;;;20.40;53.60;;;;;;1521801;77;790;-70
2024/03/24 08:00:22;;;;;;;;;;;20.50;53.70;;;;;;1519887;76;736;-69
2024/03/24 08:02:24;;;;;;;;;;;20.40;53.60;;;;;;1527816;76;1913;-69
2024/03/24 08:04:26;;;;;;;;;;;20.50;53.80;;;;;;1522723;75;1114;-71
2024/03/24 08:06:28;;;;;;;;;;;20.50;53.70;;;;;;1524534;76;776;-69
2024/03/24 08:08:30;;;;;;;;;;;20.50;53.70;;;;;;1523004;76;699;-69
2024/03/24 08:10:32;;;;;;;;;;;20.40;53.60;;;;;;1519127;76;694;-73
2024/03/24 08:12:34;;;;;;;;;;;20.50;53.80;;;;;;1519233;76;794;-68
2024/03/24 08:14:35;;;;;;;;;;;20.40;53.80;;;;;;1518568;76;1158;-67
2024/03/24 08:16:37;;;;;;;;;;;20.40;53.80;;;;;;1514621;76;837;-69
2024/03/24 08:18:40;;;;;;;;;;;20.40;53.80;;;;;;1520555;76;773;-71
2024/03/24 08:20:45;;;;;;;;;;;20.40;53.80;;;;;;1520227;76;654;-67
2024/03/24 08:22:47;;;;;;;;;;;20.40;53.90;;;;;;1526193;76;1958;-69
2024/03/24 08:24:49;;;;;;;;;;;20.40;53.90;;;;;;1530787;75;1156;-71
2024/03/24 08:26:51;;;;;;;;;;;20.50;53.90;;;;;;1522871;76;804;-67
2024/03/24 08:28:52;;;;;;;;;;;20.50;53.90;;;;;;1518840;76;755;-71
2024/03/24 08:30:54;;;;;;;;;;;20.40;53.90;;;;;;1521884;76;698;-69
2024/03/24 08:32:56;;;;;;;;;;;20.50;54.20;;;;;;1522180;76;749;-67
2024/03/24 08:34:59;;;;;;;;;;;20.60;54.30;;;;;;1516769;76;1220;-65
2024/03/24 08:37:00;;;;;;;;;;;20.50;54.20;;;;;;1513012;76;601;-67
2024/03/24 08:39:03;;;;;;;;;;;20.60;54.20;;;;;;1517693;76;655;-69
2024/03/24 08:41:04;;;;;;;;;;;20.60;54.10;;;;;;1520486;76;719;-70
2024/03/24 08:43:06;;;;;;;;;;;20.50;54.00;;;;;;1536432;75;1923;-68
2024/03/24 08:45:09;;;;;;;;;;;20.60;54.00;;;;;;1544710;75;1146;-69
2024/03/24 08:47:11;;;;;;;;;;;20.60;54.00;;;;;;1531406;75;731;-69
2024/03/24 08:49:13;;;;;;;;;;;20.60;53.90;;;;;;1513295;77;795;-67
2024/03/24 08:51:15;;;;;;;;;;;20.50;53.90;;;;;;1543978;76;709;-67
2024/03/24 08:53:17;;;;;;;;;;;20.60;53.90;;;;;;1535879;76;708;-67
2024/03/24 08:55:19;;;;;;;;;;;20.60;53.90;;;;;;1570339;73;1182;-70
2024/03/24 08:57:21;;;;;;;;;;;20.50;53.90;;;;;;1591172;73;725;-70
2024/03/24 08:59:23;;;;;;;;;;;20.60;53.90;;;;;;1578843;73;797;-67
2024/03/24 09:01:25;;;;;;;;;;;20.50;53.90;;;;;;1586231;73;781;-67
2024/03/24 09:03:27;;;;;;;;;;;20.60;53.80;;;;;;1572091;73;1945;-67
2024/03/24 09:05:29;;;;;;;;;;;20.60;53.80;;;;;;1582346;73;1164;-68
2024/03/24 09:07:31;;;;;;;;;;;20.50;53.90;;;;;;1582666;73;774;-68
2024/03/24 09:09:33;;;;;;;;;;;20.60;53.80;;;;;;1584547;73;745;-67
2024/03/24 09:11:34;;;;;;;;;;;20.60;53.70;;;;;;1584863;73;721;-71
2024/03/24 09:13:36;;;;;;;;;;;20.60;53.80;;;;;;1588305;73;657;-69
2024/03/24 09:15:38;;;;;;;;;;;20.60;53.80;;;;;;1581146;73;1133;-74
2024/03/24 09:17:40;;;;;;;;;;;20.60;53.80;;;;;;1582497;73;778;-71
2024/03/24 09:19:42;;;;;;;;;;;20.60;53.20;;;;;;1583731;73;711;-68
2024/03/24 09:21:44;;;;;;;;;;;20.50;53.40;;;;;;1578455;74;1937;-69
2024/03/24 09:23:46;;;;;;;;;;;20.60;53.10;;;;;;1580490;73;660;-70
2024/03/24 09:25:48;;;;;;;;;;;20.60;53.30;;;;;;1587299;73;1139;-70
2024/03/24 09:27:50;;;;;;;;;;;20.60;53.40;;;;;;1581327;73;709;-71
2024/03/24 09:29:52;;;;;;;;;;;20.60;53.40;;;;;;1580517;73;732;-68
2024/03/24 09:31:54;;;;;;;;;;;20.60;53.40;;;;;;1584667;73;728;-69
2024/03/24 09:33:56;;;;;;;;;;;20.60;53.40;;;;;;1591143;73;768;-69
2024/03/24 09:36:01;;;;;;;;;;;20.60;53.30;;;;;;1575945;73;1136;-70
2024/03/24 09:38:03;;;;;;;;;;;20.60;53.40;;;;;;1572907;74;771;-69
2024/03/24 09:40:05;;;;;;;;;;;20.60;53.40;;;;;;1576280;73;713;-69
2024/03/24 09:42:07;;;;;;;;;;;20.70;53.50;;;;;;1569372;73;1925;-69
2024/03/24 09:44:12;;;;;;;;;;;20.60;53.30;;;;;;1563975;73;622;-70
2024/03/24 09:46:14;;;;;;;;;;;20.60;53.40;;;;;;1575154;73;1153;-71
2024/03/24 09:48:16;;;;;;;;;;;20.60;53.40;;;;;;1583563;73;711;-70
2024/03/24 09:50:18;;;;;;;;;;;20.60;53.30;;;;;;1573475;73;769;-69
2024/03/24 09:52:21;;;;;;;;;;;20.60;53.30;;;;;;1583056;73;727;-70
2024/03/24 09:54:22;;;;;;;;;;;20.60;53.30;;;;;;1581433;72;1202;-69
2024/03/24 09:56:26;;;;;;;;;;;20.60;53.30;;;;;;1583069;73;712;-69
2024/03/24 09:58:27;;;;;;;;;;;20.70;53.40;;;;;;1577923;73;780;-72
2024/03/24 10:00:29;;;;;;;;;;;20.60;53.30;;;;;;1574151;73;724;-71
2024/03/24 10:02:31;;;;;;;;;;;20.60;53.20;;;;;;1582693;73;1930;-69
2024/03/24 10:04:33;;;;;;;;;;;20.60;53.20;;;;;;1580371;73;1156;-71
2024/03/24 10:06:35;;;;;;;;;;;20.60;53.10;;;;;;1565066;73;786;-69
2024/03/24 10:08:38;;;;;;;;;;;20.60;53.10;;;;;;1568322;73;733;-71
2024/03/24 10:10:40;;;;;;;;;;;20.70;53.20;;;;;;1576717;73;787;-69
2024/03/24 10:12:43;;;;;;;;;;;20.60;53.10;;;;;;1580049;73;940;-69
2024/03/24 10:14:45;;;;;;;;;;;20.70;53.20;;;;;;1587137;73;1399;-69
2024/03/24 10:16:47;;;;;;;;;;;20.60;53.10;;;;;;1580244;73;674;-70
2024/03/24 10:18:49;;;;;;;;;;;20.70;53.20;;;;;;1576591;73;788;-75
2024/03/24 10:20:51;;;;;;;;;;;20.60;53.00;;;;;;1575206;73;658;-69
2024/03/24 10:22:56;;;;;;;;;;;20.60;53.00;;;;;;1577270;73;1938;-70
2024/03/24 10:24:58;;;;;;;;;;;20.60;53.00;;;;;;1573458;73;1168;-72
2024/03/24 10:27:00;;;;;;;;;;;20.60;52.90;;;;;;1566433;73;691;-72
2024/03/24 10:29:02;;;;;;;;;;;20.60;52.90;;;;;;1572952;73;705;-70
2024/03/24 10:31:07;;;;;;;;;;;20.60;52.90;;;;;;1584099;73;600;-72
2024/03/24 10:33:10;;;;;;;;;;;20.60;52.80;;;;;;1582819;73;735;-70
2024/03/24 10:35:11;;;;;;;;;;;20.60;52.80;;;;;;1581597;73;1171;-70
2024/03/24 10:37:14;;;;;;;;;;;20.60;52.80;;;;;;1576730;74;717;-70
2024/03/24 10:39:16;;;;;;;;;;;20.60;52.80;;;;;;1578143;73;699;-68
2024/03/24 10:41:18;;;;;;;;;;;20.60;52.80;;;;;;1575276;73;718;-68
2024/03/24 10:43:20;;;;;;;;;;;20.60;52.80;;;;;;1577730;73;1895;-69
2024/03/24 10:45:22;;;;;;;;;;;20.60;52.80;;;;;;1579621;73;1298;-69
2024/03/24 10:47:24;;;;;;;;;;;20.70;52.90;;;;;;1569002;73;744;-69
2024/03/24 10:49:26;;;;;;;;;;;20.70;52.80;;;;;;1570545;73;761;-69
2024/03/24 10:51:31;;;;;;;;;;;20.60;52.70;;;;;;1582258;73;717;-69
2024/03/24 10:53:33;;;;;;;;;;;20.60;52.70;;;;;;1583162;73;775;-68
2024/03/24 10:55:35;;;;;;;;;;;20.60;52.70;;;;;;1577846;73;1144;-69
2024/03/24 10:57:43;;;;;;;;;;;20.60;52.70;;;;;;1580816;73;731;-68
2024/03/24 10:59:45;;;;;;;;;;;20.60;52.70;;;;;;1578609;73;1088;-71
2024/03/24 11:01:47;;;;;;;;;;;20.60;52.60;;;;;;1580129;73;755;-68
2024/03/24 11:03:50;;;;;;;;;;;20.60;52.60;;;;;;1576308;73;1945;-69
2024/03/24 11:05:52;;;;;;;;;;;20.70;52.70;;;;;;1573522;73;1213;-68
2024/03/24 11:07:54;;;;;;;;;;;20.60;52.60;;;;;;1574276;73;662;-69
2024/03/24 11:09:58;;;;;;;;;;;20.60;52.60;;;;;;1579796;73;719;-68
2024/03/24 11:12:00;;;;;;;;;;;20.70;52.70;;;;;;1581330;73;710;-69
2024/03/24 11:14:01;;;;;;;;;;;20.70;52.70;;;;;;1560660;73;767;-69
2024/03/24 11:16:03;;;;;;;;;;;20.70;52.70;;;;;;1573709;73;1127;-68
2024/03/24 11:18:07;;;;;;;;;;;20.60;52.50;;;;;;1580786;73;718;-71
2024/03/24 11:20:10;;;;;;;;;;;20.60;52.50;;;;;;1507147;77;1133;-74
2024/03/24 11:22:13;;;;;;;;;;;20.60;52.50;;;;;;1568491;74;1836;-70
2024/03/24 11:24:31;;;;;;;;;;;20.60;52.50;;;;;;1570942;74;1917;-70
2024/03/24 11:26:33;;;;;;;;;;;20.60;52.40;;;;;;1570296;74;1382;-68
2024/03/24 11:28:48;;;;;;;;;;;20.60;52.40;;;;;;1573376;74;702;-69
2024/03/24 11:30:51;;;;;;;;;;;20.60;52.40;;;;;;1583265;74;537;-71
2024/03/24 11:32:54;;;;;;;;;;;20.60;52.30;;;;;;1554014;74;726;-70
2024/03/24 11:34:56;;;;;;;;;;;20.60;52.30;;;;;;1565551;74;1296;-71
2024/03/24 11:36:58;;;;;;;;;;;20.60;52.30;;;;;;1572820;74;750;-69
2024/03/24 11:39:00;;;;;;;;;;;20.60;52.30;;;;;;1569683;74;693;-68
2024/03/24 11:41:02;;;;;;;;;;;20.60;52.30;;;;;;1562014;74;725;-69
2024/03/24 11:43:04;;;;;;;;;;;20.60;52.30;;;;;;1571898;74;1926;-69
2024/03/24 11:45:24;;;;;;;;;;;20.60;52.30;;;;;;1564677;74;1146;-71
2024/03/24 11:47:29;;;;;;;;;;;20.60;52.30;;;;;;1573062;74;700;-69
2024/03/24 11:49:40;;;;;;;;;;;20.60;52.20;;;;;;1571971;74;1677;-71
2024/03/24 11:51:42;;;;;;;;;;;20.60;52.30;;;;;;1573842;74;700;-70
2024/03/24 11:53:44;;;;;;;;;;;20.60;52.20;;;;;;1579792;74;703;-73
2024/03/24 11:55:46;;;;;;;;;;;20.60;52.20;;;;;;1570877;74;1182;-69
2024/03/24 11:57:47;;;;;;;;;;;20.60;52.20;;;;;;1553047;74;685;-70
2024/03/24 11:59:49;;;;;;;;;;;20.50;52.20;;;;;;1559196;74;714;-70
2024/03/24 12:01:51;;;;;;;;;;;20.60;52.20;;;;;;1559884;74;663;-69
2024/03/24 12:03:53;;;;;;;;;;;20.50;52.20;;;;;;1563039;74;1926;-70
2024/03/24 12:05:56;;;;;;;;;;;20.50;52.10;;;;;;1563673;74;1088;-69
2024/03/24 12:07:58;;;;;;;;;;;20.60;52.10;;;;;;1566954;74;709;-71
2024/03/24 12:10:00;;;;;;;;;;;20.60;52.10;;;;;;1574711;74;739;-68